sensor_id;sensor_type;location;lat;lon;timestamp;temperature;humidity
15115;DHT22;7658;51.456;7.622;2024-03-22T00:01:46;9.70;99.90
15115;DHT22;7658;51.456;7.622;2024-03-22T00:04:16;9.60;99.90
15115;DHT22;7658;51.456;7.622;2024-03-22T00:06:43;9.60;99.90
15115;DHT22;7658;51.456;7.622;2024-03-22T00:09:09;9.60;99.90
15115;DHT22;7658;51.456;7.622;2024-03-22T00:11:36;9.60;99.90
15115;DHT22;7658;51.456;7.622;2024-03-22T00:14:02;9.60;99.90
15115;DHT22;7658;51.456;7.622;2024-03-22T00:16:28;9.70;99.90
15115;DHT22;7658;51.456;7.622;2024-03-22T00:18:54;9.60;99.90
15115;DHT22;7658;51.456;7.622;2024-03-22T00:21:20;9.60;99.90
15115;DHT22;7658;51.456;7.622;2024-03-22T00:23:46;9.60;99.90
15115;DHT22;7658;51.456;7.622;2024-03-22T00:26:12;9.60;99.90
15115;DHT22;7658;51.456;7.622;2024-03-22T00:28:38;9.60;99.90
15115;DHT22;7658;51.456;7.622;2024-03-22T00:31:04;9.60;99.90
15115;DHT22;7658;51.456;7.622;2024-03-22T00:33:29;9.60;99.90
15115;DHT22;7658;51.456;7.622;2024-03-22T00:35:55;9.50;99.90
15115;DHT22;7658;51.456;7.622;2024-03-22T00:38:21;9.50;99.90
15115;DHT22;7658;51.456;7.622;2024-03-22T00:40:47;9.50;99.90
15115;DHT22;7658;51.456;7.622;2024-03-22T00:43:12;9.50;99.90
15115;DHT22;7658;51.456;7.622;2024-03-22T00:45:40;9.50;99.90
15115;DHT22;7658;51.456;7.622;2024-03-22T00:48:06;9.50;99.90
15115;DHT22;7658;51.456;7.622;2024-03-22T00:50:32;9.50;99.90
15115;DHT22;7658;51.456;7.622;2024-03-22T00:52:58;9.40;99.90
15115;DHT22;7658;51.456;7.622;2024-03-22T00:55:24;9.40;99.90
15115;DHT22;7658;51.456;7.622;2024-03-22T00:57:51;9.40;99.90
15115;DHT22;7658;51.456;7.622;2024-03-22T01:00:17;9.40;99.90
15115;DHT22;7658;51.456;7.622;2024-03-22T01:02:43;9.50;99.90
15115;DHT22;7658;51.456;7.622;2024-03-22T01:05:09;9.40;99.90
15115;DHT22;7658;51.456;7.622;2024-03-22T01:07:36;9.40;99.90
15115;DHT22;7658;51.456;7.622;2024-03-22T01:10:03;9.50;99.90
15115;DHT22;7658;51.456;7.622;2024-03-22T01:12:29;9.50;99.90
15115;DHT22;7658;51.456;7.622;2024-03-22T01:14:55;9.50;99.90
15115;DHT22;7658;51.456;7.622;2024-03-22T01:17:21;9.50;99.90
15115;DHT22;7658;51.456;7.622;2024-03-22T01:19:46;9.60;99.90
15115;DHT22;7658;51.456;7.622;2024-03-22T01:22:12;9.60;99.90
15115;DHT22;7658;51.456;7.622;2024-03-22T01:24:38;9.60;99.90
15115;DHT22;7658;51.456;7.622;2024-03-22T01:27:04;9.70;99.90
15115;DHT22;7658;51.456;7.622;2024-03-22T01:29:30;9.70;99.90
15115;DHT22;7658;51.456;7.622;2024-03-22T01:31:58;9.70;99.90
15115;DHT22;7658;51.456;7.622;2024-03-22T01:34:24;9.70;99.90
15115;DHT22;7658;51.456;7.622;2024-03-22T01:36:51;9.70;99.90
15115;DHT22;7658;51.456;7.622;2024-03-22T01:39:17;9.70;99.90
15115;DHT22;7658;51.456;7.622;2024-03-22T01:41:44;9.80;99.90
15115;DHT22;7658;51.456;7.622;2024-03-22T01:44:09;9.80;99.90
15115;DHT22;7658;51.456;7.622;2024-03-22T01:46:36;9.80;99.90
15115;DHT22;7658;51.456;7.622;2024-03-22T01:49:02;9.90;99.90
15115;DHT22;7658;51.456;7.622;2024-03-22T01:51:27;9.90;99.90
15115;DHT22;7658;51.456;7.622;2024-03-22T01:53:53;9.90;99.90
15115;DHT22;7658;51.456;7.622;2024-03-22T01:56:20;10.00;99.90
15115;DHT22;7658;51.456;7.622;2024-03-22T01:58:48;10.00;99.90
15115;DHT22;7658;51.456;7.622;2024-03-22T02:01:14;10.00;99.90
15115;DHT22;7658;51.456;7.622;2024-03-22T02:03:40;10.00;99.90
15115;DHT22;7658;51.456;7.622;2024-03-22T02:06:06;10.00;99.90
15115;DHT22;7658;51.456;7.622;2024-03-22T02:08:32;10.00;99.90
15115;DHT22;7658;51.456;7.622;2024-03-22T02:10:57;10.00;99.90
15115;DHT22;7658;51.456;7.622;2024-03-22T02:13:23;10.00;99.90
15115;DHT22;7658;51.456;7.622;2024-03-22T02:15:49;10.00;99.90
15115;DHT22;7658;51.456;7.622;2024-03-22T02:18:15;10.00;99.90
15115;DHT22;7658;51.456;7.622;2024-03-22T02:20:41;10.00;99.90
15115;DHT22;7658;51.456;7.622;2024-03-22T02:23:06;10.00;99.90
15115;DHT22;7658;51.456;7.622;2024-03-22T02:25:32;10.10;99.90
15115;DHT22;7658;51.456;7.622;2024-03-22T02:27:58;10.20;99.90
15115;DHT22;7658;51.456;7.622;2024-03-22T02:30:24;10.20;99.90
15115;DHT22;7658;51.456;7.622;2024-03-22T02:32:49;10.30;99.90
15115;DHT22;7658;51.456;7.622;2024-03-22T02:35:15;10.30;99.90
15115;DHT22;7658;51.456;7.622;2024-03-22T02:37:41;10.40;99.90
15115;DHT22;7658;51.456;7.622;2024-03-22T02:40:07;10.40;99.90
15115;DHT22;7658;51.456;7.622;2024-03-22T02:42:33;10.40;99.90
15115;DHT22;7658;51.456;7.622;2024-03-22T02:44:59;10.40;99.90
15115;DHT22;7658;51.456;7.622;2024-03-22T02:47:24;10.40;99.90
15115;DHT22;7658;51.456;7.622;2024-03-22T02:49:50;10.40;99.90
15115;DHT22;7658;51.456;7.622;2024-03-22T02:52:16;10.40;99.90
15115;DHT22;7658;51.456;7.622;2024-03-22T02:54:42;10.40;99.90
15115;DHT22;7658;51.456;7.622;2024-03-22T02:57:07;10.40;99.90
15115;DHT22;7658;51.456;7.622;2024-03-22T02:59:33;10.40;99.90
15115;DHT22;7658;51.456;7.622;2024-03-22T03:01:59;10.40;99.90
15115;DHT22;7658;51.456;7.622;2024-03-22T03:04:25;10.40;99.90
15115;DHT22;7658;51.456;7.622;2024-03-22T03:06:50;10.40;99.90
15115;DHT22;7658;51.456;7.622;2024-03-22T03:09:16;10.40;99.90
15115;DHT22;7658;51.456;7.622;2024-03-22T03:11:42;10.40;99.90
15115;DHT22;7658;51.456;7.622;2024-03-22T03:14:08;10.40;99.90
15115;DHT22;7658;51.456;7.622;2024-03-22T03:16:33;10.40;99.90
15115;DHT22;7658;51.456;7.622;2024-03-22T03:18:59;10.40;99.90
15115;DHT22;7658;51.456;7.622;2024-03-22T03:21:25;10.40;99.90
15115;DHT22;7658;51.456;7.622;2024-03-22T03:23:51;10.40;99.90
15115;DHT22;7658;51.456;7.622;2024-03-22T03:26:17;10.40;99.90
15115;DHT22;7658;51.456;7.622;2024-03-22T03:28:43;10.40;99.90
15115;DHT22;7658;51.456;7.622;2024-03-22T03:31:08;10.40;99.90
15115;DHT22;7658;51.456;7.622;2024-03-22T03:33:34;10.40;99.90
15115;DHT22;7658;51.456;7.622;2024-03-22T03:36:00;10.40;99.90
15115;DHT22;7658;51.456;7.622;2024-03-22T03:38:26;10.40;99.90
15115;DHT22;7658;51.456;7.622;2024-03-22T03:40:51;10.40;99.90
15115;DHT22;7658;51.456;7.622;2024-03-22T03:43:17;10.40;99.90
15115;DHT22;7658;51.456;7.622;2024-03-22T03:45:44;10.30;99.90
15115;DHT22;7658;51.456;7.622;2024-03-22T03:48:10;10.40;99.90
15115;DHT22;7658;51.456;7.622;2024-03-22T03:50:35;10.30;99.90
15115;DHT22;7658;51.456;7.622;2024-03-22T03:53:01;10.40;99.90
15115;DHT22;7658;51.456;7.622;2024-03-22T03:55:27;10.40;99.90
15115;DHT22;7658;51.456;7.622;2024-03-22T03:57:53;10.40;99.90
15115;DHT22;7658;51.456;7.622;2024-03-22T04:00:19;10.40;99.90
15115;DHT22;7658;51.456;7.622;2024-03-22T04:02:45;10.40;99.90
15115;DHT22;7658;51.456;7.622;2024-03-22T04:05:11;10.50;99.90
15115;DHT22;7658;51.456;7.622;2024-03-22T04:07:37;10.50;99.90
15115;DHT22;7658;51.456;7.622;2024-03-22T04:10:05;10.50;99.90
15115;DHT22;7658;51.456;7.622;2024-03-22T04:12:31;10.50;99.90
15115;DHT22;7658;51.456;7.622;2024-03-22T04:14:57;10.50;99.90
15115;DHT22;7658;51.456;7.622;2024-03-22T04:17:23;10.50;99.90
15115;DHT22;7658;51.456;7.622;2024-03-22T04:19:49;10.50;99.90
15115;DHT22;7658;51.456;7.622;2024-03-22T04:22:15;10.50;99.90
15115;DHT22;7658;51.456;7.622;2024-03-22T04:24:41;10.50;99.90
15115;DHT22;7658;51.456;7.622;2024-03-22T04:27:07;10.40;99.90
15115;DHT22;7658;51.456;7.622;2024-03-22T04:29:33;10.40;99.90
15115;DHT22;7658;51.456;7.622;2024-03-22T04:31:59;10.40;99.90
15115;DHT22;7658;51.456;7.622;2024-03-22T04:34:24;10.40;99.90
15115;DHT22;7658;51.456;7.622;2024-03-22T04:36:50;10.40;99.90
15115;DHT22;7658;51.456;7.622;2024-03-22T04:39:19;10.40;99.90
15115;DHT22;7658;51.456;7.622;2024-03-22T04:41:45;10.30;99.90
15115;DHT22;7658;51.456;7.622;2024-03-22T04:44:11;10.30;99.90
15115;DHT22;7658;51.456;7.622;2024-03-22T04:46:37;10.40;99.90
15115;DHT22;7658;51.456;7.622;2024-03-22T04:49:02;10.40;99.90
15115;DHT22;7658;51.456;7.622;2024-03-22T04:51:28;10.40;99.90
15115;DHT22;7658;51.456;7.622;2024-03-22T04:53:54;10.40;99.90
15115;DHT22;7658;51.456;7.622;2024-03-22T04:56:20;10.40;99.90
15115;DHT22;7658;51.456;7.622;2024-03-22T04:58:46;10.40;99.90
15115;DHT22;7658;51.456;7.622;2024-03-22T05:01:12;10.40;99.90
15115;DHT22;7658;51.456;7.622;2024-03-22T05:03:38;10.40;99.90
15115;DHT22;7658;51.456;7.622;2024-03-22T05:06:04;10.40;99.90
15115;DHT22;7658;51.456;7.622;2024-03-22T05:08:32;10.30;99.90
15115;DHT22;7658;51.456;7.622;2024-03-22T05:10:58;10.30;99.90
15115;DHT22;7658;51.456;7.622;2024-03-22T05:13:23;10.40;99.90
15115;DHT22;7658;51.456;7.622;2024-03-22T05:15:49;10.40;99.90
15115;DHT22;7658;51.456;7.622;2024-03-22T05:18:15;10.40;99.90
15115;DHT22;7658;51.456;7.622;2024-03-22T05:20:41;10.40;99.90
15115;DHT22;7658;51.456;7.622;2024-03-22T05:23:06;10.40;99.90
15115;DHT22;7658;51.456;7.622;2024-03-22T05:25:32;10.40;99.90
15115;DHT22;7658;51.456;7.622;2024-03-22T05:27:58;10.40;99.90
15115;DHT22;7658;51.456;7.622;2024-03-22T05:30:23;10.40;99.90
15115;DHT22;7658;51.456;7.622;2024-03-22T05:32:49;10.40;99.90
15115;DHT22;7658;51.456;7.622;2024-03-22T05:35:16;10.40;99.90
15115;DHT22;7658;51.456;7.622;2024-03-22T05:37:41;10.40;99.90
15115;DHT22;7658;51.456;7.622;2024-03-22T05:40:08;10.50;99.90
15115;DHT22;7658;51.456;7.622;2024-03-22T05:42:34;10.50;99.90
15115;DHT22;7658;51.456;7.622;2024-03-22T05:45:00;10.40;99.90
15115;DHT22;7658;51.456;7.622;2024-03-22T05:47:26;10.50;99.90
15115;DHT22;7658;51.456;7.622;2024-03-22T05:49:52;10.50;99.90
15115;DHT22;7658;51.456;7.622;2024-03-22T05:52:18;10.50;99.90
15115;DHT22;7658;51.456;7.622;2024-03-22T05:54:44;10.50;99.90
15115;DHT22;7658;51.456;7.622;2024-03-22T05:57:10;10.60;99.90
15115;DHT22;7658;51.456;7.622;2024-03-22T05:59:36;10.70;99.90
15115;DHT22;7658;51.456;7.622;2024-03-22T06:02:02;10.70;99.90
15115;DHT22;7658;51.456;7.622;2024-03-22T06:04:28;10.70;99.90
15115;DHT22;7658;51.456;7.622;2024-03-22T06:06:54;10.80;99.90
15115;DHT22;7658;51.456;7.622;2024-03-22T06:09:20;10.80;99.90
15115;DHT22;7658;51.456;7.622;2024-03-22T06:12:03;10.80;99.90
15115;DHT22;7658;51.456;7.622;2024-03-22T06:14:29;10.90;99.90
15115;DHT22;7658;51.456;7.622;2024-03-22T06:16:55;10.90;99.90
15115;DHT22;7658;51.456;7.622;2024-03-22T06:19:21;11.00;39.40
15115;DHT22;7658;51.456;7.622;2024-03-22T06:21:46;11.00;1.00
15115;DHT22;7658;51.456;7.622;2024-03-22T06:24:13;11.10;1.00
15115;DHT22;7658;51.456;7.622;2024-03-22T06:26:38;11.20;1.00
15115;DHT22;7658;51.456;7.622;2024-03-22T06:29:04;11.20;99.90
15115;DHT22;7658;51.456;7.622;2024-03-22T06:31:31;11.30;99.90
15115;DHT22;7658;51.456;7.622;2024-03-22T06:33:57;11.40;99.90
15115;DHT22;7658;51.456;7.622;2024-03-22T06:36:31;11.40;1.00
15115;DHT22;7658;51.456;7.622;2024-03-22T06:38:58;11.50;1.00
15115;DHT22;7658;51.456;7.622;2024-03-22T06:41:25;11.50;1.00
15115;DHT22;7658;51.456;7.622;2024-03-22T06:43:51;11.60;99.90
15115;DHT22;7658;51.456;7.622;2024-03-22T06:46:17;11.70;1.00
15115;DHT22;7658;51.456;7.622;2024-03-22T06:48:43;11.70;1.00
15115;DHT22;7658;51.456;7.622;2024-03-22T06:51:09;11.80;1.00
15115;DHT22;7658;51.456;7.622;2024-03-22T06:53:35;11.80;1.00
15115;DHT22;7658;51.456;7.622;2024-03-22T06:56:01;11.90;99.90
15115;DHT22;7658;51.456;7.622;2024-03-22T06:58:26;11.90;99.90
15115;DHT22;7658;51.456;7.622;2024-03-22T07:00:52;12.00;99.90
15115;DHT22;7658;51.456;7.622;2024-03-22T07:03:18;11.90;99.90
15115;DHT22;7658;51.456;7.622;2024-03-22T07:05:44;12.00;99.90
15115;DHT22;7658;51.456;7.622;2024-03-22T07:08:09;12.00;1.00
15115;DHT22;7658;51.456;7.622;2024-03-22T07:10:39;12.00;99.90
15115;DHT22;7658;51.456;7.622;2024-03-22T07:13:05;12.10;1.00
15115;DHT22;7658;51.456;7.622;2024-03-22T07:15:31;12.10;99.90
15115;DHT22;7658;51.456;7.622;2024-03-22T07:17:58;12.20;99.90
15115;DHT22;7658;51.456;7.622;2024-03-22T07:20:25;12.20;1.00
15115;DHT22;7658;51.456;7.622;2024-03-22T07:22:51;12.30;1.00
15115;DHT22;7658;51.456;7.622;2024-03-22T07:25:17;12.40;1.00
15115;DHT22;7658;51.456;7.622;2024-03-22T07:27:43;12.30;70.70
15115;DHT22;7658;51.456;7.622;2024-03-22T07:30:09;12.40;99.90
15115;DHT22;7658;51.456;7.622;2024-03-22T07:32:35;12.40;23.70
15115;DHT22;7658;51.456;7.622;2024-03-22T07:35:03;12.50;99.90
15115;DHT22;7658;51.456;7.622;2024-03-22T07:37:29;12.50;1.00
15115;DHT22;7658;51.456;7.622;2024-03-22T07:39:54;12.50;1.00
15115;DHT22;7658;51.456;7.622;2024-03-22T07:42:20;12.60;1.00
15115;DHT22;7658;51.456;7.622;2024-03-22T07:44:47;12.60;99.90
15115;DHT22;7658;51.456;7.622;2024-03-22T07:47:12;12.70;1.00
15115;DHT22;7658;51.456;7.622;2024-03-22T07:49:38;12.80;1.00
15115;DHT22;7658;51.456;7.622;2024-03-22T07:52:04;12.90;1.00
15115;DHT22;7658;51.456;7.622;2024-03-22T07:54:30;13.10;99.90
15115;DHT22;7658;51.456;7.622;2024-03-22T07:56:57;13.20;53.60
15115;DHT22;7658;51.456;7.622;2024-03-22T07:59:23;13.30;1.00
15115;DHT22;7658;51.456;7.622;2024-03-22T08:01:49;13.40;99.90
15115;DHT22;7658;51.456;7.622;2024-03-22T08:04:14;13.50;99.90
15115;DHT22;7658;51.456;7.622;2024-03-22T08:06:40;13.40;99.90
15115;DHT22;7658;51.456;7.622;2024-03-22T08:09:06;13.40;1.00
15115;DHT22;7658;51.456;7.622;2024-03-22T08:11:33;13.40;1.00
15115;DHT22;7658;51.456;7.622;2024-03-22T08:13:59;13.40;1.00
15115;DHT22;7658;51.456;7.622;2024-03-22T08:16:29;13.30;99.90
15115;DHT22;7658;51.456;7.622;2024-03-22T08:18:55;13.30;1.00
15115;DHT22;7658;51.456;7.622;2024-03-22T08:21:23;13.30;1.00
15115;DHT22;7658;51.456;7.622;2024-03-22T08:23:49;13.40;1.00
15115;DHT22;7658;51.456;7.622;2024-03-22T08:26:15;13.40;99.90
15115;DHT22;7658;51.456;7.622;2024-03-22T08:28:41;13.40;99.90
15115;DHT22;7658;51.456;7.622;2024-03-22T08:31:06;13.40;1.00
15115;DHT22;7658;51.456;7.622;2024-03-22T08:33:32;13.50;1.00
15115;DHT22;7658;51.456;7.622;2024-03-22T08:35:58;13.50;33.90
15115;DHT22;7658;51.456;7.622;2024-03-22T08:38:24;13.60;99.90
15115;DHT22;7658;51.456;7.622;2024-03-22T08:40:50;13.80;99.90
15115;DHT22;7658;51.456;7.622;2024-03-22T08:43:16;14.00;99.90
15115;DHT22;7658;51.456;7.622;2024-03-22T08:45:42;14.20;99.90
15115;DHT22;7658;51.456;7.622;2024-03-22T08:48:08;14.60;99.90
15115;DHT22;7658;51.456;7.622;2024-03-22T08:50:34;14.50;22.20
15115;DHT22;7658;51.456;7.622;2024-03-22T08:53:00;14.40;1.00
15115;DHT22;7658;51.456;7.622;2024-03-22T08:55:29;14.20;29.60
15115;DHT22;7658;51.456;7.622;2024-03-22T08:57:54;14.10;69.50
15115;DHT22;7658;51.456;7.622;2024-03-22T09:00:20;14.00;99.90
15115;DHT22;7658;51.456;7.622;2024-03-22T09:02:46;13.80;1.00
15115;DHT22;7658;51.456;7.622;2024-03-22T09:05:13;13.70;1.00
15115;DHT22;7658;51.456;7.622;2024-03-22T09:07:38;13.70;1.00
15115;DHT22;7658;51.456;7.622;2024-03-22T09:10:05;13.70;1.00
15115;DHT22;7658;51.456;7.622;2024-03-22T09:12:31;13.80;99.90
15115;DHT22;7658;51.456;7.622;2024-03-22T09:14:57;13.80;1.00
15115;DHT22;7658;51.456;7.622;2024-03-22T09:17:23;14.00;99.90
15115;DHT22;7658;51.456;7.622;2024-03-22T09:19:49;14.10;99.90
15115;DHT22;7658;51.456;7.622;2024-03-22T09:22:15;14.00;99.90
15115;DHT22;7658;51.456;7.622;2024-03-22T09:24:41;14.00;99.90
15115;DHT22;7658;51.456;7.622;2024-03-22T09:27:07;14.00;99.90
15115;DHT22;7658;51.456;7.622;2024-03-22T09:29:38;14.00;99.90
15115;DHT22;7658;51.456;7.622;2024-03-22T09:32:04;14.00;99.90
15115;DHT22;7658;51.456;7.622;2024-03-22T09:34:30;14.10;1.00
15115;DHT22;7658;51.456;7.622;2024-03-22T09:36:57;14.20;1.00
15115;DHT22;7658;51.456;7.622;2024-03-22T09:39:23;14.30;99.90
15115;DHT22;7658;51.456;7.622;2024-03-22T09:41:51;14.40;99.90
15115;DHT22;7658;51.456;7.622;2024-03-22T09:44:19;14.40;99.90
15115;DHT22;7658;51.456;7.622;2024-03-22T09:46:47;14.40;99.90
15115;DHT22;7658;51.456;7.622;2024-03-22T09:49:14;14.40;1.00
15115;DHT22;7658;51.456;7.622;2024-03-22T09:51:41;14.60;1.00
15115;DHT22;7658;51.456;7.622;2024-03-22T09:54:09;14.60;1.00
15115;DHT22;7658;51.456;7.622;2024-03-22T09:56:36;14.80;1.00
15115;DHT22;7658;51.456;7.622;2024-03-22T09:59:03;14.80;1.00
15115;DHT22;7658;51.456;7.622;2024-03-22T10:01:29;14.90;1.00
15115;DHT22;7658;51.456;7.622;2024-03-22T10:03:56;14.90;1.00
15115;DHT22;7658;51.456;7.622;2024-03-22T10:06:21;14.80;1.00
15115;DHT22;7658;51.456;7.622;2024-03-22T10:08:48;14.90;1.00
15115;DHT22;7658;51.456;7.622;2024-03-22T10:11:14;14.80;1.00
15115;DHT22;7658;51.456;7.622;2024-03-22T10:13:39;14.80;1.00
15115;DHT22;7658;51.456;7.622;2024-03-22T10:16:05;14.80;1.00
15115;DHT22;7658;51.456;7.622;2024-03-22T10:18:33;14.80;1.00
15115;DHT22;7658;51.456;7.622;2024-03-22T10:21:03;14.80;1.00
15115;DHT22;7658;51.456;7.622;2024-03-22T10:23:30;14.80;1.00
15115;DHT22;7658;51.456;7.622;2024-03-22T10:25:57;14.80;1.00
15115;DHT22;7658;51.456;7.622;2024-03-22T10:28:24;14.90;1.00
15115;DHT22;7658;51.456;7.622;2024-03-22T10:30:51;14.90;1.00
15115;DHT22;7658;51.456;7.622;2024-03-22T10:33:21;14.90;1.00
15115;DHT22;7658;51.456;7.622;2024-03-22T10:35:54;15.00;1.00
15115;DHT22;7658;51.456;7.622;2024-03-22T10:38:21;15.10;1.00
15115;DHT22;7658;51.456;7.622;2024-03-22T10:40:48;15.10;1.00
15115;DHT22;7658;51.456;7.622;2024-03-22T10:43:14;15.10;1.00
15115;DHT22;7658;51.456;7.622;2024-03-22T10:45:41;15.10;1.00
15115;DHT22;7658;51.456;7.622;2024-03-22T10:48:11;15.10;1.00
15115;DHT22;7658;51.456;7.622;2024-03-22T10:50:41;15.20;1.00
15115;DHT22;7658;51.456;7.622;2024-03-22T10:53:31;15.20;1.00
15115;DHT22;7658;51.456;7.622;2024-03-22T10:55:59;15.30;1.00
15115;DHT22;7658;51.456;7.622;2024-03-22T10:58:26;15.40;1.00
15115;DHT22;7658;51.456;7.622;2024-03-22T11:00:53;15.50;1.00
15115;DHT22;7658;51.456;7.622;2024-03-22T11:03:24;15.50;1.00
15115;DHT22;7658;51.456;7.622;2024-03-22T11:05:55;15.50;1.00
15115;DHT22;7658;51.456;7.622;2024-03-22T11:08:28;15.40;1.00
15115;DHT22;7658;51.456;7.622;2024-03-22T11:10:56;15.40;1.00
15115;DHT22;7658;51.456;7.622;2024-03-22T11:13:22;15.30;1.00
15115;DHT22;7658;51.456;7.622;2024-03-22T11:15:49;15.20;1.00
15115;DHT22;7658;51.456;7.622;2024-03-22T11:18:15;15.10;1.00
15115;DHT22;7658;51.456;7.622;2024-03-22T11:20:42;15.10;1.00
15115;DHT22;7658;51.456;7.622;2024-03-22T11:23:09;15.10;1.00
15115;DHT22;7658;51.456;7.622;2024-03-22T11:25:35;15.10;1.00
15115;DHT22;7658;51.456;7.622;2024-03-22T11:28:01;15.00;1.00
15115;DHT22;7658;51.456;7.622;2024-03-22T11:30:32;15.10;1.00
15115;DHT22;7658;51.456;7.622;2024-03-22T11:33:02;15.10;1.00
15115;DHT22;7658;51.456;7.622;2024-03-22T11:35:27;15.20;1.00
15115;DHT22;7658;51.456;7.622;2024-03-22T11:37:53;15.10;1.00
15115;DHT22;7658;51.456;7.622;2024-03-22T11:40:19;15.20;1.00
15115;DHT22;7658;51.456;7.622;2024-03-22T11:42:51;15.30;1.00
15115;DHT22;7658;51.456;7.622;2024-03-22T11:45:18;15.30;1.00
15115;DHT22;7658;51.456;7.622;2024-03-22T11:47:45;15.40;1.00
15115;DHT22;7658;51.456;7.622;2024-03-22T11:50:15;15.50;1.00
15115;DHT22;7658;51.456;7.622;2024-03-22T11:52:44;15.40;1.00
15115;DHT22;7658;51.456;7.622;2024-03-22T11:55:13;15.50;1.00
15115;DHT22;7658;51.456;7.622;2024-03-22T11:57:39;15.50;1.00
15115;DHT22;7658;51.456;7.622;2024-03-22T12:00:06;15.50;1.00
15115;DHT22;7658;51.456;7.622;2024-03-22T12:02:35;15.50;1.00
15115;DHT22;7658;51.456;7.622;2024-03-22T12:05:03;15.60;1.00
15115;DHT22;7658;51.456;7.622;2024-03-22T12:07:29;15.60;1.00
15115;DHT22;7658;51.456;7.622;2024-03-22T12:09:55;15.50;1.00
15115;DHT22;7658;51.456;7.622;2024-03-22T12:12:22;15.50;1.00
15115;DHT22;7658;51.456;7.622;2024-03-22T12:14:50;15.50;1.00
15115;DHT22;7658;51.456;7.622;2024-03-22T12:17:19;15.50;1.00
15115;DHT22;7658;51.456;7.622;2024-03-22T12:19:45;15.50;1.00
15115;DHT22;7658;51.456;7.622;2024-03-22T12:22:10;15.50;1.00
15115;DHT22;7658;51.456;7.622;2024-03-22T12:24:37;15.40;1.00
15115;DHT22;7658;51.456;7.622;2024-03-22T12:27:03;15.40;1.00
15115;DHT22;7658;51.456;7.622;2024-03-22T12:29:29;15.40;1.00
15115;DHT22;7658;51.456;7.622;2024-03-22T12:31:54;15.40;1.00
15115;DHT22;7658;51.456;7.622;2024-03-22T12:34:20;15.40;1.00
15115;DHT22;7658;51.456;7.622;2024-03-22T12:36:46;15.40;1.00
15115;DHT22;7658;51.456;7.622;2024-03-22T12:39:12;15.50;1.00
15115;DHT22;7658;51.456;7.622;2024-03-22T12:41:38;15.30;1.00
15115;DHT22;7658;51.456;7.622;2024-03-22T12:44:04;15.20;1.00
15115;DHT22;7658;51.456;7.622;2024-03-22T12:46:29;15.20;1.00
15115;DHT22;7658;51.456;7.622;2024-03-22T12:48:55;15.10;1.00
15115;DHT22;7658;51.456;7.622;2024-03-22T12:51:21;15.00;1.00
15115;DHT22;7658;51.456;7.622;2024-03-22T12:53:47;15.00;1.00
15115;DHT22;7658;51.456;7.622;2024-03-22T12:56:13;15.00;1.00
15115;DHT22;7658;51.456;7.622;2024-03-22T12:58:39;15.00;1.00
15115;DHT22;7658;51.456;7.622;2024-03-22T13:01:05;15.00;1.00
15115;DHT22;7658;51.456;7.622;2024-03-22T13:03:32;14.90;1.00
15115;DHT22;7658;51.456;7.622;2024-03-22T13:05:58;14.80;1.00
15115;DHT22;7658;51.456;7.622;2024-03-22T13:08:24;14.80;1.00
15115;DHT22;7658;51.456;7.622;2024-03-22T13:10:49;14.80;1.00
15115;DHT22;7658;51.456;7.622;2024-03-22T13:13:15;14.80;1.00
15115;DHT22;7658;51.456;7.622;2024-03-22T13:15:45;14.70;1.00
15115;DHT22;7658;51.456;7.622;2024-03-22T13:18:12;14.70;1.00
15115;DHT22;7658;51.456;7.622;2024-03-22T13:20:39;14.70;1.00
15115;DHT22;7658;51.456;7.622;2024-03-22T13:23:05;14.60;1.00
15115;DHT22;7658;51.456;7.622;2024-03-22T13:25:31;14.70;1.00
15115;DHT22;7658;51.456;7.622;2024-03-22T13:27:57;14.70;1.00
15115;DHT22;7658;51.456;7.622;2024-03-22T13:30:22;14.60;1.00
15115;DHT22;7658;51.456;7.622;2024-03-22T13:32:48;14.60;1.00
15115;DHT22;7658;51.456;7.622;2024-03-22T13:35:14;14.50;1.00
15115;DHT22;7658;51.456;7.622;2024-03-22T13:37:43;14.40;1.00
15115;DHT22;7658;51.456;7.622;2024-03-22T13:40:09;14.40;1.00
15115;DHT22;7658;51.456;7.622;2024-03-22T13:42:35;14.30;1.00
15115;DHT22;7658;51.456;7.622;2024-03-22T13:45:01;14.30;1.00
15115;DHT22;7658;51.456;7.622;2024-03-22T13:47:27;14.20;1.00
15115;DHT22;7658;51.456;7.622;2024-03-22T13:49:55;14.20;1.00
15115;DHT22;7658;51.456;7.622;2024-03-22T13:52:21;14.10;1.00
15115;DHT22;7658;51.456;7.622;2024-03-22T13:54:47;14.00;1.00
15115;DHT22;7658;51.456;7.622;2024-03-22T13:57:13;13.90;1.00
15115;DHT22;7658;51.456;7.622;2024-03-22T13:59:39;13.80;1.00
15115;DHT22;7658;51.456;7.622;2024-03-22T14:02:06;13.70;33.40
15115;DHT22;7658;51.456;7.622;2024-03-22T14:04:33;13.50;99.90
15115;DHT22;7658;51.456;7.622;2024-03-22T14:06:58;13.40;1.00
15115;DHT22;7658;51.456;7.622;2024-03-22T14:09:24;13.20;1.00
15115;DHT22;7658;51.456;7.622;2024-03-22T14:11:51;13.10;1.00
15115;DHT22;7658;51.456;7.622;2024-03-22T14:14:17;13.10;99.90
15115;DHT22;7658;51.456;7.622;2024-03-22T14:16:43;13.00;99.90
15115;DHT22;7658;51.456;7.622;2024-03-22T14:19:09;12.90;1.00
15115;DHT22;7658;51.456;7.622;2024-03-22T14:21:35;12.90;41.70
15115;DHT22;7658;51.456;7.622;2024-03-22T14:24:00;12.80;99.90
15115;DHT22;7658;51.456;7.622;2024-03-22T14:26:26;12.80;1.00
15115;DHT22;7658;51.456;7.622;2024-03-22T14:28:52;12.70;1.00
15115;DHT22;7658;51.456;7.622;2024-03-22T14:31:19;12.60;1.00
15115;DHT22;7658;51.456;7.622;2024-03-22T14:33:45;12.50;1.00
15115;DHT22;7658;51.456;7.622;2024-03-22T14:36:11;12.60;1.00
15115;DHT22;7658;51.456;7.622;2024-03-22T14:38:38;12.60;1.00
15115;DHT22;7658;51.456;7.622;2024-03-22T14:41:04;12.50;99.90
15115;DHT22;7658;51.456;7.622;2024-03-22T14:43:31;12.50;99.90
15115;DHT22;7658;51.456;7.622;2024-03-22T14:46:00;12.40;99.90
15115;DHT22;7658;51.456;7.622;2024-03-22T14:48:27;12.40;99.90
15115;DHT22;7658;51.456;7.622;2024-03-22T14:50:53;12.30;99.90
15115;DHT22;7658;51.456;7.622;2024-03-22T14:53:22;12.30;1.00
15115;DHT22;7658;51.456;7.622;2024-03-22T14:55:58;12.20;99.90
15115;DHT22;7658;51.456;7.622;2024-03-22T14:58:27;12.20;1.00
15115;DHT22;7658;51.456;7.622;2024-03-22T15:00:54;12.20;99.90
15115;DHT22;7658;51.456;7.622;2024-03-22T15:03:20;12.20;99.90
15115;DHT22;7658;51.456;7.622;2024-03-22T15:05:49;12.20;1.00
15115;DHT22;7658;51.456;7.622;2024-03-22T15:08:15;12.10;1.00
15115;DHT22;7658;51.456;7.622;2024-03-22T15:10:41;12.00;1.00
15115;DHT22;7658;51.456;7.622;2024-03-22T15:13:07;12.00;1.00
15115;DHT22;7658;51.456;7.622;2024-03-22T15:15:33;12.00;99.90
15115;DHT22;7658;51.456;7.622;2024-03-22T15:17:59;11.90;1.00
15115;DHT22;7658;51.456;7.622;2024-03-22T15:20:25;11.90;1.00
15115;DHT22;7658;51.456;7.622;2024-03-22T15:22:53;11.80;61.30
15115;DHT22;7658;51.456;7.622;2024-03-22T15:25:19;11.70;1.00
15115;DHT22;7658;51.456;7.622;2024-03-22T15:27:45;11.60;1.00
15115;DHT22;7658;51.456;7.622;2024-03-22T15:30:11;11.50;99.90
15115;DHT22;7658;51.456;7.622;2024-03-22T15:32:39;11.50;1.00
15115;DHT22;7658;51.456;7.622;2024-03-22T15:35:04;11.40;99.90
15115;DHT22;7658;51.456;7.622;2024-03-22T15:37:30;11.20;99.90
15115;DHT22;7658;51.456;7.622;2024-03-22T15:39:56;11.00;99.90
15115;DHT22;7658;51.456;7.622;2024-03-22T15:42:22;11.00;99.90
15115;DHT22;7658;51.456;7.622;2024-03-22T15:44:48;11.00;99.90
15115;DHT22;7658;51.456;7.622;2024-03-22T15:47:14;10.90;99.90
15115;DHT22;7658;51.456;7.622;2024-03-22T15:49:40;10.80;99.90